Phoenix-Mesa-Gateway Airport
KIWA : rendu visible

Aérodrome :











RETROUVEZ-NOUS SUR...

 
LOGIN :

S'inscrire | Disclaimer

   EN    FR    IT 

 









Légende :    VFR   VFR Marginal   IFR   IFR Intensif   IFR Très Intensif
Visi : 
Plafond : 
>= 8 km
>= 3000ft
5 à 8 km
1000 à 3000 ft
1500m à 5 km
500 à 1000 ft
800 à 1500m
200 à 500 ft
< 800m
< 200 ft
Symboles :   Orages  Brouillard  Fortes neiges  Fortes précipitations  Vent > 20 kt






- Altitude de l'aérodrome : 1382 ft


KIWA - Phoenix-Mesa-Gateway

DERNIER METAR :
  • 031150Z 06009KT 10SM SKC 10/M10 A3021

METARs EXPIRÉS :
  • 031135Z AUTO 06011KT 10SM CLR 10/M10 A3021 RMK AO2 T00991103
  • 031115Z AUTO 04009KT 10SM CLR 09/M10 A3020 RMK AO2 T00901103
  • 031055Z AUTO 36003KT 10SM CLR 11/M09 A3019 RMK AO2 T01061091
  • 031035Z AUTO 10006KT 10SM CLR 11/M09 A3019 RMK AO2 T01081090
  • 031015Z AUTO 11006KT 10SM CLR 10/M10 A3019 RMK AO2 T00991095
  • 030955Z AUTO 10005KT 10SM CLR 10/M10 A3018 RMK AO2 T00961100

TAF KIWA
Valide du 03 à 12h jusqu'au 04 à 12h UTC


031120Z 0312/0412 10006KT P6SM SKC
FM031600 10010G18KT P6SM SKC
FM031900 10006KT P6SM SKC
FM032300 29005KT P6SM FEW250
FM040400 10005KT P6SM SKC
FIR KZAB / Amérique du Nord



MET'MAP, la Météo Aéronautique d'un coup d'oeil ! - Copyright ORBIFLY Décembre 2007 - Disclaimer

ORBIFLY MET'MAP TEAM :

Programmation & Développement : Alexandra Zaïnal
Sur une idée originale de : Baudouin d'Aumeries
Assistance à la programmation : Marc-Olivier Méhu
Soutien technique & logistique : Manuel Goepfert

Contact : metmap@orbifly.com




SOURCES & CREDITS :

   NOAA       Earth
Advisory